Time;durP1;ratioP1;P1;durP2;ratioP2;P2;SDS_P1;SDS_P2;PMS_P1;PMS_P2;Temp;Humidity;BMP_temperature;BMP_pressure;BME280_temperature;BME280_humidity;BME280_pressure;Samples;Min_cycle;Max_cycle;Signal;HPM_P1;HPM_P2
2023/10/31 00:01:32;;;;;;;53.00;23.92;;;;;;;;;;6265602;28;20056;-63
2023/10/31 00:04:32;;;;;;;59.70;25.50;;;;;;;;;;6263005;28;20041;-61
2023/10/31 00:07:33;;;;;;;59.33;24.42;;;;;;;;;;6261875;28;20163;-61
2023/10/31 00:10:33;;;;;;;46.20;21.27;;;;;;;;;;6263881;28;20075;-61
2023/10/31 00:13:34;;;;;;;37.80;16.85;;;;;;;;;;6265081;28;20056;-60
2023/10/31 00:16:34;;;;;;;23.92;10.70;;;;;;;;;;6264314;28;20051;-61
2023/10/31 00:19:35;;;;;;;18.13;8.07;;;;;;;;;;6263828;28;20053;-60
2023/10/31 00:22:36;;;;;;;23.60;9.38;;;;;;;;;;6265945;28;20057;-60
2023/10/31 00:25:36;;;;;;;26.52;11.45;;;;;;;;;;6264320;28;20084;-61
2023/10/31 00:28:37;;;;;;;15.77;7.38;;;;;;;;;;6264970;28;20064;-60
2023/10/31 00:31:40;;;;;;;13.40;7.38;;;;;;;;;;6264874;28;20052;-61
2023/10/31 00:34:41;;;;;;;21.30;9.40;;;;;;;;;;6262612;28;20067;-61
2023/10/31 00:37:42;;;;;;;24.90;10.77;;;;;;;;;;6263653;28;20045;-62
2023/10/31 00:40:42;;;;;;;23.88;11.70;;;;;;;;;;6264883;28;20053;-61
2023/10/31 00:43:43;;;;;;;23.50;10.23;;;;;;;;;;6264788;28;20518;-61
2023/10/31 00:46:43;;;;;;;29.15;11.70;;;;;;;;;;6245624;28;20048;-61
2023/10/31 00:49:44;;;;;;;18.88;8.13;;;;;;;;;;6265008;28;20045;-61
2023/10/31 00:52:44;;;;;;;19.25;8.80;;;;;;;;;;6264964;28;20048;-61
2023/10/31 00:55:45;;;;;;;21.55;8.93;;;;;;;;;;6263424;28;20068;-61
2023/10/31 00:58:46;;;;;;;19.42;9.13;;;;;;;;;;6263789;28;20057;-60
2023/10/31 01:01:46;;;;;;;20.92;9.95;;;;;;;;;;6261969;28;20143;-61
2023/10/31 01:04:47;;;;;;;20.75;9.50;;;;;;;;;;6261843;28;20049;-62
2023/10/31 01:07:47;;;;;;;19.90;10.55;;;;;;;;;;6263432;28;20048;-60
2023/10/31 01:10:48;;;;;;;20.30;9.65;;;;;;;;;;6265858;28;20543;-61
2023/10/31 01:13:49;;;;;;;19.63;9.02;;;;;;;;;;6262281;28;20083;-61
2023/10/31 01:16:49;;;;;;;16.13;7.85;;;;;;;;;;6262588;28;20446;-61
2023/10/31 01:19:50;;;;;;;18.13;7.47;;;;;;;;;;6265370;28;20046;-61
2023/10/31 01:22:50;;;;;;;21.20;7.10;;;;;;;;;;6264455;28;20106;-59
2023/10/31 01:25:51;;;;;;;20.77;7.97;;;;;;;;;;6263259;28;20095;-60
2023/10/31 01:28:52;;;;;;;15.88;7.43;;;;;;;;;;6264062;28;20083;-60
2023/10/31 01:31:53;;;;;;;28.60;18.87;;;;;;;;;;6265446;28;20053;-61
2023/10/31 01:34:53;;;;;;;19.85;9.38;;;;;;;;;;6267248;28;20049;-61
2023/10/31 01:37:54;;;;;;;16.55;7.10;;;;;;;;;;6268469;28;20502;-60
2023/10/31 01:40:54;;;;;;;15.48;8.10;;;;;;;;;;6268155;28;20051;-61
2023/10/31 01:43:55;;;;;;;13.15;5.78;;;;;;;;;;6266623;28;20106;-61
2023/10/31 01:46:55;;;;;;;11.70;4.70;;;;;;;;;;6266918;28;20057;-60
2023/10/31 01:49:56;;;;;;;14.80;4.82;;;;;;;;;;6268776;28;20049;-61
2023/10/31 01:52:57;;;;;;;15.80;7.03;;;;;;;;;;6268443;28;20072;-61
2023/10/31 01:55:59;;;;;;;18.25;6.72;;;;;;;;;;6266828;28;20124;-61
2023/10/31 01:59:00;;;;;;;;;;;;;;;;;;6268494;28;20045;-61
2023/10/31 02:02:01;;;;;;;25.95;5.82;;;;;;;;;;6267354;28;19933;-61
2023/10/31 02:05:01;;;;;;;19.38;5.13;;;;;;;;;;6267085;28;20052;-61
2023/10/31 02:08:02;;;;;;;14.73;5.20;;;;;;;;;;6266967;28;20074;-61
2023/10/31 02:11:03;;;;;;;13.60;4.75;;;;;;;;;;6267071;28;20080;-62
2023/10/31 02:14:04;;;;;;;15.00;4.45;;;;;;;;;;6268943;28;20531;-61
2023/10/31 02:17:04;;;;;;;11.27;4.30;;;;;;;;;;6267197;28;20051;-62
2023/10/31 02:20:06;;;;;;;8.18;3.83;;;;;;;;;;6267846;28;20083;-61
2023/10/31 02:23:06;;;;;;;11.37;3.43;;;;;;;;;;6267004;28;20065;-61
2023/10/31 02:26:07;;;;;;;10.20;4.63;;;;;;;;;;6266755;28;20049;-62
2023/10/31 02:29:08;;;;;;;11.15;3.63;;;;;;;;;;6267996;28;20053;-61
2023/10/31 02:32:08;;;;;;;7.82;3.58;;;;;;;;;;6267021;28;20045;-60
2023/10/31 02:35:11;;;;;;;9.73;4.00;;;;;;;;;;6264666;28;20037;-62
2023/10/31 02:38:11;;;;;;;11.70;4.65;;;;;;;;;;6266748;28;20045;-61
2023/10/31 02:41:12;;;;;;;13.02;5.15;;;;;;;;;;6267371;28;20153;-61
2023/10/31 02:44:15;;;;;;;17.63;5.63;;;;;;;;;;6266581;28;20051;-60
2023/10/31 02:47:15;;;;;;;16.88;4.55;;;;;;;;;;6260990;28;20139;-61
2023/10/31 02:50:16;;;;;;;16.38;5.30;;;;;;;;;;6266803;28;20408;-61
2023/10/31 02:53:19;;;;;;;16.50;6.15;;;;;;;;;;6268164;28;20045;-61
2023/10/31 02:56:20;;;;;;;17.92;5.72;;;;;;;;;;6264137;28;20044;-62
2023/10/31 02:59:20;;;;;;;14.48;4.93;;;;;;;;;;6266584;28;20041;-62
2023/10/31 03:02:22;;;;;;;12.65;5.15;;;;;;;;;;6267628;28;20505;-60
2023/10/31 03:05:22;;;;;;;15.50;5.03;;;;;;;;;;6264259;28;20055;-61
2023/10/31 03:08:23;;;;;;;12.35;5.55;;;;;;;;;;6265587;28;20407;-61
2023/10/31 03:11:25;;;;;;;17.15;6.03;;;;;;;;;;6268135;28;20408;-62
2023/10/31 03:14:25;;;;;;;10.35;4.07;;;;;;;;;;6264964;28;20492;-62
2023/10/31 03:17:27;;;;;;;12.63;5.20;;;;;;;;;;6264486;28;20095;-61
2023/10/31 03:20:28;;;;;;;9.43;4.55;;;;;;;;;;6264476;28;20053;-61
2023/10/31 03:23:29;;;;;;;7.03;4.43;;;;;;;;;;6267209;28;20084;-62
2023/10/31 03:26:29;;;;;;;11.57;4.13;;;;;;;;;;6261734;28;20080;-61
2023/10/31 03:29:30;;;;;;;9.05;3.40;;;;;;;;;;6267714;28;20500;-62
2023/10/31 03:32:31;;;;;;;8.32;3.25;;;;;;;;;;6266792;28;20053;-61
2023/10/31 03:35:31;;;;;;;9.90;3.85;;;;;;;;;;6260101;28;20049;-61
2023/10/31 03:38:32;;;;;;;10.02;4.22;;;;;;;;;;6265962;28;20061;-61
2023/10/31 03:41:33;;;;;;;12.20;5.47;;;;;;;;;;6266654;28;20492;-62
2023/10/31 03:44:33;;;;;;;12.77;4.90;;;;;;;;;;6265541;28;20055;-62
2023/10/31 03:47:34;;;;;;;18.05;5.35;;;;;;;;;;6264728;28;20045;-63
2023/10/31 03:50:35;;;;;;;13.95;4.38;;;;;;;;;;6265651;28;20400;-62
2023/10/31 03:53:35;;;;;;;10.52;4.40;;;;;;;;;;6265629;28;20132;-62
2023/10/31 03:56:40;;;;;;;14.30;4.57;;;;;;;;;;6264412;28;20680;-62
2023/10/31 03:59:40;;;;;;;12.45;4.78;;;;;;;;;;6265225;28;20037;-62
2023/10/31 04:02:41;;;;;;;15.63;5.00;;;;;;;;;;6264017;28;20049;-62
2023/10/31 04:05:42;;;;;;;15.25;5.00;;;;;;;;;;6265257;28;20084;-62
2023/10/31 04:08:42;;;;;;;20.85;6.95;;;;;;;;;;6266102;28;20073;-61
2023/10/31 04:11:43;;;;;;;19.75;5.97;;;;;;;;;;6264959;28;20549;-61
2023/10/31 04:14:43;;;;;;;14.55;5.60;;;;;;;;;;6264324;28;20044;-62
2023/10/31 04:17:44;;;;;;;24.02;9.20;;;;;;;;;;6263498;28;20408;-61
2023/10/31 04:20:45;;;;;;;18.77;8.95;;;;;;;;;;6265191;28;20135;-61
2023/10/31 04:23:45;;;;;;;20.02;7.07;;;;;;;;;;6264415;28;20041;-61
2023/10/31 04:26:46;;;;;;;17.63;6.40;;;;;;;;;;6263919;28;20057;-62
2023/10/31 04:29:46;;;;;;;16.23;6.68;;;;;;;;;;6265042;28;20488;-61
2023/10/31 04:32:47;;;;;;;19.08;6.68;;;;;;;;;;6264702;28;20493;-61
2023/10/31 04:35:47;;;;;;;22.35;7.22;;;;;;;;;;6261363;28;20059;-62
2023/10/31 04:38:48;;;;;;;23.48;8.38;;;;;;;;;;6264489;28;20045;-60
2023/10/31 04:41:48;;;;;;;32.28;9.40;;;;;;;;;;6262252;28;20041;-62
2023/10/31 04:44:49;;;;;;;31.33;9.80;;;;;;;;;;6263690;28;20072;-61
2023/10/31 04:47:50;;;;;;;22.90;8.65;;;;;;;;;;6263828;28;20470;-62
2023/10/31 04:50:50;;;;;;;22.60;7.97;;;;;;;;;;6264825;28;20377;-60
2023/10/31 04:53:51;;;;;;;22.25;8.23;;;;;;;;;;6265581;28;20068;-61
2023/10/31 04:56:51;;;;;;;24.05;8.43;;;;;;;;;;6262161;28;20041;-61
2023/10/31 04:59:54;;;;;;;18.98;7.38;;;;;;;;;;6265989;28;20041;-61
2023/10/31 05:02:56;;;;;;;21.05;8.20;;;;;;;;;;6264354;28;20454;-60
2023/10/31 05:05:57;;;;;;;30.10;9.80;;;;;;;;;;6259108;28;20041;-61
2023/10/31 05:08:57;;;;;;;24.20;8.55;;;;;;;;;;6265211;28;20052;-59
2023/10/31 05:11:58;;;;;;;32.60;9.00;;;;;;;;;;6262061;28;20037;-60
2023/10/31 05:14:58;;;;;;;17.55;4.80;;;;;;;;;;6264574;28;20056;-62
2023/10/31 05:17:59;;;;;;;14.70;4.50;;;;;;;;;;6268252;28;20049;-61
2023/10/31 05:21:00;;;;;;;12.73;4.88;;;;;;;;;;6265247;28;20037;-62
2023/10/31 05:24:00;;;;;;;12.60;4.75;;;;;;;;;;6266104;28;20052;-61
2023/10/31 05:27:01;;;;;;;8.02;3.78;;;;;;;;;;6268011;28;20056;-62
2023/10/31 05:30:02;;;;;;;10.63;3.63;;;;;;;;;;6267127;28;20037;-62
2023/10/31 05:33:03;;;;;;;14.40;3.70;;;;;;;;;;6263915;28;20174;-62
2023/10/31 05:36:04;;;;;;;13.85;3.65;;;;;;;;;;6255721;28;20492;-62
2023/10/31 05:39:05;;;;;;;12.57;3.60;;;;;;;;;;6281541;28;20479;-62
2023/10/31 05:42:06;;;;;;;10.18;4.10;;;;;;;;;;6265198;28;20044;-62
2023/10/31 05:45:07;;;;;;;7.63;3.78;;;;;;;;;;6263800;28;20408;-62
2023/10/31 05:48:07;;;;;;;10.98;4.20;;;;;;;;;;6270330;28;20044;-61
2023/10/31 05:51:18;;;;;;;11.85;4.10;;;;;;;;;;6264349;28;20045;-62
2023/10/31 05:54:18;;;;;;;8.57;3.45;;;;;;;;;;6262440;28;20120;-61
2023/10/31 05:57:19;;;;;;;15.63;4.13;;;;;;;;;;6262501;28;20047;-62
2023/10/31 06:00:20;;;;;;;10.27;4.27;;;;;;;;;;6267222;28;20045;-61
2023/10/31 06:03:20;;;;;;;13.35;5.07;;;;;;;;;;6266468;28;20161;-62
2023/10/31 06:06:21;;;;;;;13.10;4.68;;;;;;;;;;6265198;28;20041;-62
2023/10/31 06:09:22;;;;;;;9.50;4.28;;;;;;;;;;6265144;28;20045;-62
2023/10/31 06:12:22;;;;;;;14.98;4.18;;;;;;;;;;6268130;28;20037;-63
2023/10/31 06:15:23;;;;;;;12.57;4.18;;;;;;;;;;6265209;28;20045;-62
2023/10/31 06:18:23;;;;;;;14.23;4.53;;;;;;;;;;6262805;28;20206;-62
2023/10/31 06:21:24;;;;;;;13.97;4.97;;;;;;;;;;6264975;28;20537;-62
2023/10/31 06:24:25;;;;;;;19.33;5.13;;;;;;;;;;6266118;28;20045;-61
2023/10/31 06:27:25;;;;;;;17.77;7.15;;;;;;;;;;6263552;28;20045;-62
2023/10/31 06:30:26;;;;;;;16.33;4.67;;;;;;;;;;6283747;28;20045;-62
2023/10/31 06:33:27;;;;;;;9.60;3.92;;;;;;;;;;6267557;28;20053;-62
2023/10/31 06:36:27;;;;;;;16.00;5.10;;;;;;;;;;6265047;28;20048;-61
2023/10/31 06:39:28;;;;;;;11.93;4.70;;;;;;;;;;6267311;28;20095;-62
2023/10/31 06:42:29;;;;;;;12.60;3.97;;;;;;;;;;6267841;28;20059;-62
2023/10/31 06:45:30;;;;;;;17.05;6.07;;;;;;;;;;6265595;28;20406;-63
2023/10/31 06:48:31;;;;;;;9.38;3.90;;;;;;;;;;6266782;28;20052;-61
2023/10/31 06:51:31;;;;;;;13.55;4.85;;;;;;;;;;6264663;28;20049;-63
2023/10/31 06:54:32;;;;;;;15.20;3.97;;;;;;;;;;6266619;28;20053;-62
2023/10/31 06:57:32;;;;;;;11.37;4.03;;;;;;;;;;6265531;28;20045;-62
2023/10/31 07:00:33;;;;;;;13.10;4.20;;;;;;;;;;6266102;28;20405;-62
2023/10/31 07:03:34;;;;;;;17.17;5.13;;;;;;;;;;6268556;28;20076;-62
2023/10/31 07:06:34;;;;;;;20.13;5.20;;;;;;;;;;6265436;28;20045;-62
2023/10/31 07:09:35;;;;;;;14.40;4.38;;;;;;;;;;6264244;28;20415;-62
2023/10/31 07:12:35;;;;;;;10.88;4.45;;;;;;;;;;6268129;28;20045;-61
2023/10/31 07:15:38;;;;;;;15.90;4.60;;;;;;;;;;6264316;28;20450;-62
2023/10/31 07:18:39;;;;;;;13.65;5.05;;;;;;;;;;6266752;28;20053;-62
2023/10/31 07:21:40;;;;;;;13.82;5.00;;;;;;;;;;6266943;28;20106;-62
2023/10/31 07:24:41;;;;;;;16.02;5.40;;;;;;;;;;6264876;28;20052;-61
2023/10/31 07:27:41;;;;;;;13.27;4.90;;;;;;;;;;6265215;28;20061;-63
2023/10/31 07:30:42;;;;;;;13.57;5.27;;;;;;;;;;6264453;28;20415;-62
2023/10/31 07:33:46;;;;;;;21.65;6.38;;;;;;;;;;6263429;28;20148;-63
2023/10/31 07:36:47;;;;;;;16.60;5.05;;;;;;;;;;6263529;28;20131;-62
2023/10/31 07:39:48;;;;;;;14.65;6.03;;;;;;;;;;6266637;28;20056;-62
2023/10/31 07:42:49;;;;;;;19.30;6.60;;;;;;;;;;6266969;28;20507;-63
2023/10/31 07:45:50;;;;;;;16.10;6.00;;;;;;;;;;6265584;28;20071;-62
2023/10/31 07:48:50;;;;;;;13.80;5.40;;;;;;;;;;6265365;28;20053;-62
2023/10/31 07:51:51;;;;;;;16.00;5.68;;;;;;;;;;6265308;28;20123;-62
2023/10/31 07:54:52;;;;;;;19.23;5.93;;;;;;;;;;6265177;28;20056;-62
2023/10/31 07:57:53;;;;;;;15.63;6.38;;;;;;;;;;6265073;28;20095;-61
2023/10/31 08:00:53;;;;;;;16.13;6.35;;;;;;;;;;6265862;28;20123;-62
2023/10/31 08:03:55;;;;;;;33.80;15.32;;;;;;;;;;6265197;28;20443;-62
2023/10/31 08:06:55;;;;;;;22.08;7.70;;;;;;;;;;6262495;28;20179;-62
2023/10/31 08:09:57;;;;;;;;;;;;;;;;;;6265466;28;20158;-63
2023/10/31 08:12:57;;;;;;;16.75;7.43;;;;;;;;;;6265076;28;19929;-62
2023/10/31 08:15:58;;;;;;;14.73;6.57;;;;;;;;;;6264419;28;20541;-62
2023/10/31 08:18:58;;;;;;;14.00;5.63;;;;;;;;;;6265300;28;20048;-62
2023/10/31 08:21:59;;;;;;;14.73;6.18;;;;;;;;;;6265205;28;20095;-62
2023/10/31 08:25:00;;;;;;;17.73;6.25;;;;;;;;;;6264320;28;20055;-62
2023/10/31 08:28:00;;;;;;;15.25;6.07;;;;;;;;;;6261950;28;20053;-62
2023/10/31 08:31:01;;;;;;;19.13;6.30;;;;;;;;;;6264628;28;20033;-61
2023/10/31 08:34:01;;;;;;;18.42;6.75;;;;;;;;;;6265312;28;20098;-62
2023/10/31 08:37:02;;;;;;;14.90;6.10;;;;;;;;;;6262308;28;20055;-62
2023/10/31 08:40:04;;;;;;;16.75;6.60;;;;;;;;;;6263479;28;20070;-62
2023/10/31 08:43:06;;;;;;;15.93;7.47;;;;;;;;;;6264611;28;20041;-62
2023/10/31 08:46:07;;;;;;;20.10;6.95;;;;;;;;;;6263002;28;20206;-62
2023/10/31 08:49:07;;;;;;;16.45;6.57;;;;;;;;;;6264323;28;20466;-63
2023/10/31 08:52:08;;;;;;;17.73;6.90;;;;;;;;;;6264391;28;20079;-62
2023/10/31 08:55:09;;;;;;;18.90;6.32;;;;;;;;;;6263629;28;20559;-62
2023/10/31 08:58:13;;;;;;;19.02;6.72;;;;;;;;;;6263586;28;20041;-61
2023/10/31 09:01:13;;;;;;;15.73;7.53;;;;;;;;;;6265059;28;20045;-62
2023/10/31 09:04:14;;;;;;;16.65;6.65;;;;;;;;;;6262927;28;20053;-61
2023/10/31 09:07:15;;;;;;;22.52;7.30;;;;;;;;;;6262923;28;20052;-62
2023/10/31 09:10:15;;;;;;;20.85;7.03;;;;;;;;;;6264908;28;20045;-62
2023/10/31 09:13:16;;;;;;;17.05;7.57;;;;;;;;;;6264666;28;20067;-63
2023/10/31 09:16:16;;;;;;;27.85;9.65;;;;;;;;;;6263636;28;20140;-62
2023/10/31 09:19:17;;;;;;;21.90;9.05;;;;;;;;;;6264160;28;20341;-62
2023/10/31 09:22:18;;;;;;;20.93;9.50;;;;;;;;;;6264009;28;20045;-61
2023/10/31 09:25:18;;;;;;;22.05;9.57;;;;;;;;;;6262208;28;20083;-63
2023/10/31 09:28:19;;;;;;;21.33;10.20;;;;;;;;;;6249915;28;20049;-62
2023/10/31 09:31:20;;;;;;;28.92;10.95;;;;;;;;;;6263505;28;20041;-63
2023/10/31 09:34:20;;;;;;;21.98;10.13;;;;;;;;;;6264262;28;20049;-62
2023/10/31 09:37:21;;;;;;;22.35;9.65;;;;;;;;;;6263660;28;20381;-62
2023/10/31 09:40:22;;;;;;;22.27;10.32;;;;;;;;;;6261490;28;20468;-62
2023/10/31 09:43:23;;;;;;;22.90;9.70;;;;;;;;;;6265381;28;20045;-62
2023/10/31 09:46:23;;;;;;;23.42;10.18;;;;;;;;;;6261605;28;20191;-61
2023/10/31 09:49:24;;;;;;;16.75;8.52;;;;;;;;;;6261424;28;20041;-62
2023/10/31 09:52:25;;;;;;;18.70;9.50;;;;;;;;;;6264095;28;20037;-62
2023/10/31 09:55:26;;;;;;;19.08;11.13;;;;;;;;;;6265605;28;20041;-62
2023/10/31 09:58:26;;;;;;;18.10;7.95;;;;;;;;;;6267610;28;20053;-62
2023/10/31 10:01:27;;;;;;;19.02;7.15;;;;;;;;;;6268487;28;20056;-62
2023/10/31 10:04:29;;;;;;;16.65;6.97;;;;;;;;;;6267914;28;20056;-63
2023/10/31 10:07:30;;;;;;;;;;;;;;;;;;6267165;28;20057;-62
2023/10/31 10:10:31;;;;;;;18.42;6.72;;;;;;;;;;6267656;28;19925;-62
2023/10/31 10:13:32;;;;;;;12.70;6.40;;;;;;;;;;6267410;28;20033;-62
2023/10/31 10:16:33;;;;;;;15.70;6.43;;;;;;;;;;6268478;28;20044;-62
2023/10/31 10:19:34;;;;;;;14.32;6.30;;;;;;;;;;6266003;28;20421;-62
2023/10/31 10:22:39;;;;;;;13.02;5.90;;;;;;;;;;6267538;28;20385;-63
2023/10/31 10:25:42;;;;;;;17.33;6.90;;;;;;;;;;6266992;28;20099;-62
2023/10/31 10:28:46;;;;;;;16.38;6.70;;;;;;;;;;6266817;28;20101;-62
2023/10/31 10:31:47;;;;;;;11.65;5.43;;;;;;;;;;6266864;28;20053;-62
2023/10/31 10:34:48;;;;;;;14.18;6.28;;;;;;;;;;6266124;28;20068;-62
2023/10/31 10:37:50;;;;;;;12.38;5.40;;;;;;;;;;6264569;28;20048;-62
2023/10/31 10:40:53;;;;;;;12.88;5.57;;;;;;;;;;6267033;28;20053;-62
2023/10/31 10:44:05;;;;;;;13.50;5.43;;;;;;;;;;6267413;28;20051;-62
2023/10/31 10:47:06;;;;;;;15.10;6.35;;;;;;;;;;6266334;28;20044;-62
2023/10/31 10:50:09;;;;;;;17.93;6.17;;;;;;;;;;6266880;28;20041;-62
2023/10/31 10:53:25;;;;;;;19.80;5.90;;;;;;;;;;6266961;28;20124;-62
2023/10/31 10:56:30;;;;;;;13.27;6.07;;;;;;;;;;6267076;28;20075;-62
2023/10/31 10:59:40;;;;;;;15.88;5.68;;;;;;;;;;6266107;28;20045;-61
2023/10/31 11:02:43;;;;;;;13.63;5.97;;;;;;;;;;6266684;28;20440;-62
2023/10/31 11:05:44;;;;;;;12.27;5.25;;;;;;;;;;6264881;28;20044;-61
2023/10/31 11:08:45;;;;;;;14.43;5.07;;;;;;;;;;6266900;28;20453;-62
2023/10/31 11:11:48;;;;;;;;;;;;;;;;;;6267283;28;20041;-62
2023/10/31 11:14:50;;;;;;;14.95;5.82;;;;;;;;;;6266646;28;19927;-62
2023/10/31 11:17:52;;;;;;;16.45;5.32;;;;;;;;;;6281523;28;20049;-63
2023/10/31 11:20:52;;;;;;;;;;;;;;;;;;6266152;28;20056;-62
2023/10/31 11:24:00;;;;;;;9.85;4.10;;;;;;;;;;6265984;28;19924;-62
2023/10/31 11:27:03;;;;;;;16.20;4.15;;;;;;;;;;6262955;28;20063;-62
2023/10/31 11:30:06;;;;;;;9.60;4.18;;;;;;;;;;6265919;28;20251;-62
2023/10/31 11:33:11;;;;;;;10.02;4.03;;;;;;;;;;6265870;28;20384;-62
2023/10/31 11:36:12;;;;;;;14.07;4.13;;;;;;;;;;6264322;28;20421;-62
2023/10/31 11:39:15;;;;;;;10.50;4.00;;;;;;;;;;6263454;28;20048;-62
2023/10/31 11:42:19;;;;;;;8.00;4.13;;;;;;;;;;6264380;28;20403;-62
2023/10/31 11:45:57;;;;;;;10.50;4.07;;;;;;;;;;6265116;28;20046;-62
2023/10/31 11:48:59;;;;;;;11.90;5.03;;;;;;;;;;6246017;28;20064;-62
2023/10/31 11:52:00;;;;;;;13.90;5.97;;;;;;;;;;6264707;28;20439;-62
2023/10/31 11:55:02;;;;;;;9.45;4.20;;;;;;;;;;6265121;28;20496;-62
2023/10/31 11:58:15;;;;;;;10.40;4.30;;;;;;;;;;6265377;28;20044;-62
2023/10/31 12:01:16;;;;;;;12.27;4.30;;;;;;;;;;6265402;28;20517;-62
2023/10/31 12:04:23;;;;;;;15.45;6.00;;;;;;;;;;6264085;28;20126;-62
2023/10/31 12:07:24;;;;;;;18.38;5.10;;;;;;;;;;6266333;28;20075;-62
2023/10/31 12:10:32;;;;;;;9.52;4.03;;;;;;;;;;6264216;28;20045;-62
2023/10/31 12:13:35;;;;;;;10.10;4.00;;;;;;;;;;6266036;28;20051;-62
2023/10/31 12:16:35;;;;;;;7.60;3.67;;;;;;;;;;6263073;28;20052;-62
2023/10/31 12:19:37;;;;;;;9.45;3.70;;;;;;;;;;6265500;28;20068;-62
2023/10/31 12:22:37;;;;;;;15.37;3.97;;;;;;;;;;6267064;28;20053;-62
2023/10/31 12:25:51;;;;;;;10.73;4.25;;;;;;;;;;6262289;28;20127;-62
2023/10/31 12:29:06;;;;;;;11.38;4.40;;;;;;;;;;6263833;28;20080;-62
2023/10/31 12:32:12;;;;;;;11.68;5.63;;;;;;;;;;6264915;28;20123;-62
2023/10/31 12:35:19;;;;;;;10.35;5.93;;;;;;;;;;6263501;28;20049;-62
2023/10/31 12:38:20;;;;;;;11.30;4.50;;;;;;;;;;6261849;28;20619;-61
2023/10/31 12:41:21;;;;;;;13.90;4.40;;;;;;;;;;6261443;28;20045;-62
2023/10/31 12:44:26;;;;;;;8.55;4.43;;;;;;;;;;6263991;28;20408;-62
2023/10/31 12:47:27;;;;;;;12.50;3.88;;;;;;;;;;6263275;28;20515;-62
2023/10/31 12:50:28;;;;;;;9.10;4.13;;;;;;;;;;6265357;28;20049;-62
2023/10/31 12:53:31;;;;;;;10.57;3.67;;;;;;;;;;6258394;28;20065;-62
2023/10/31 12:56:39;;;;;;;9.48;4.05;;;;;;;;;;6249586;28;20053;-62
2023/10/31 12:59:40;;;;;;;8.32;3.53;;;;;;;;;;6252026;28;20511;-62
2023/10/31 13:02:41;;;;;;;10.50;4.88;;;;;;;;;;6252561;28;20141;-63
2023/10/31 13:05:42;;;;;;;13.57;6.57;;;;;;;;;;6251346;28;20041;-60
2023/10/31 13:08:45;;;;;;;11.23;5.90;;;;;;;;;;6251513;28;20491;-62
2023/10/31 13:11:47;;;;;;;11.15;4.20;;;;;;;;;;6253971;28;20049;-62
2023/10/31 13:14:48;;;;;;;8.82;3.95;;;;;;;;;;6254413;28;20048;-60
2023/10/31 13:17:50;;;;;;;11.32;4.40;;;;;;;;;;6251233;28;20495;-62
2023/10/31 13:20:51;;;;;;;;;;;;;;;;;;6253180;28;20061;-62
2023/10/31 13:23:51;;;;;;;8.85;3.88;;;;;;;;;;6251431;28;19932;-62
2023/10/31 13:26:52;;;;;;;13.77;4.20;;;;;;;;;;6251664;28;20044;-62
2023/10/31 13:29:52;;;;;;;11.13;4.70;;;;;;;;;;6257761;28;20057;-62
2023/10/31 13:32:53;;;;;;;11.68;4.05;;;;;;;;;;6258864;28;20053;-63
2023/10/31 13:35:53;;;;;;;11.27;3.78;;;;;;;;;;6258995;28;20045;-61
2023/10/31 13:38:54;;;;;;;8.88;4.20;;;;;;;;;;6256234;28;20052;-62
2023/10/31 13:41:54;;;;;;;13.30;4.40;;;;;;;;;;6257419;28;20059;-61
2023/10/31 13:44:55;;;;;;;11.27;4.70;;;;;;;;;;6259017;28;20044;-62
2023/10/31 13:47:56;;;;;;;9.90;4.30;;;;;;;;;;6253328;28;20044;-62
2023/10/31 13:50:57;;;;;;;11.57;4.82;;;;;;;;;;6258711;28;20235;-61
2023/10/31 13:53:57;;;;;;;11.95;5.50;;;;;;;;;;6254898;28;20049;-61
2023/10/31 13:56:58;;;;;;;13.35;5.22;;;;;;;;;;6253256;28;20199;-60
2023/10/31 14:00:00;;;;;;;12.88;5.45;;;;;;;;;;6257705;28;20048;-61
2023/10/31 14:03:01;;;;;;;15.40;5.30;;;;;;;;;;6253934;28;20057;-61
2023/10/31 14:06:01;;;;;;;15.80;7.05;;;;;;;;;;6254134;28;21319;-62
2023/10/31 14:09:04;;;;;;;13.48;6.70;;;;;;;;;;6255202;28;20076;-60
2023/10/31 14:12:07;;;;;;;14.70;7.78;;;;;;;;;;6256582;28;20053;-61
2023/10/31 14:15:08;;;;;;;16.08;6.60;;;;;;;;;;6257957;28;20056;-60
2023/10/31 14:18:09;;;;;;;16.58;6.45;;;;;;;;;;6252138;28;20048;-61
2023/10/31 14:21:10;;;;;;;13.02;6.60;;;;;;;;;;6257310;28;20072;-61
2023/10/31 14:24:10;;;;;;;12.00;6.15;;;;;;;;;;6256811;28;20037;-60
2023/10/31 14:27:11;;;;;;;15.80;8.30;;;;;;;;;;6252315;28;20061;-61
2023/10/31 14:30:12;;;;;;;14.02;6.40;;;;;;;;;;6255329;28;20114;-63
2023/10/31 14:33:13;;;;;;;14.38;7.60;;;;;;;;;;6255481;28;20514;-60
2023/10/31 14:36:14;;;;;;;17.30;7.10;;;;;;;;;;6254283;28;20416;-61
2023/10/31 14:39:15;;;;;;;14.65;6.68;;;;;;;;;;6255046;28;20056;-60
2023/10/31 14:42:15;;;;;;;17.60;7.30;;;;;;;;;;6256379;28;20095;-61
2023/10/31 14:45:17;;;;;;;17.98;8.90;;;;;;;;;;6257281;28;20439;-60
2023/10/31 14:48:17;;;;;;;16.80;8.85;;;;;;;;;;6252613;28;20082;-61
2023/10/31 14:51:18;;;;;;;17.45;8.95;;;;;;;;;;6256302;28;20149;-60
2023/10/31 14:54:19;;;;;;;16.17;8.73;;;;;;;;;;6257197;28;20053;-60
2023/10/31 14:57:20;;;;;;;18.40;8.45;;;;;;;;;;6254189;28;20055;-61
2023/10/31 15:00:20;;;;;;;18.00;7.93;;;;;;;;;;6255200;28;20384;-60
2023/10/31 15:03:21;;;;;;;16.48;7.45;;;;;;;;;;6256770;28;21162;-61
2023/10/31 15:06:22;;;;;;;16.70;8.10;;;;;;;;;;6252031;28;20061;-61
2023/10/31 15:09:22;;;;;;;17.77;8.57;;;;;;;;;;6254417;28;20049;-61
2023/10/31 15:12:23;;;;;;;18.98;8.60;;;;;;;;;;6256247;28;20048;-61
2023/10/31 15:15:24;;;;;;;15.77;8.55;;;;;;;;;;6256393;28;20040;-59
2023/10/31 15:18:24;;;;;;;16.27;7.72;;;;;;;;;;6251532;28;20049;-61
2023/10/31 15:21:25;;;;;;;16.77;7.78;;;;;;;;;;6255515;28;20148;-61
2023/10/31 15:24:25;;;;;;;17.40;7.28;;;;;;;;;;6252717;28;20389;-61
2023/10/31 15:27:27;;;;;;;13.27;6.93;;;;;;;;;;6251491;28;20044;-61
2023/10/31 15:30:27;;;;;;;15.50;7.03;;;;;;;;;;6255635;28;20045;-60
2023/10/31 15:33:28;;;;;;;16.83;7.90;;;;;;;;;;6251429;28;20119;-61
2023/10/31 15:36:28;;;;;;;15.40;7.22;;;;;;;;;;6253104;28;20049;-62
2023/10/31 15:39:29;;;;;;;17.67;7.13;;;;;;;;;;6251018;28;20041;-60
2023/10/31 15:42:30;;;;;;;16.67;7.40;;;;;;;;;;6254133;28;20049;-59
2023/10/31 15:45:32;;;;;;;18.55;7.82;;;;;;;;;;6252421;28;20063;-62
2023/10/31 15:48:33;;;;;;;;;;;;;;;;;;6254802;28;20054;-61
2023/10/31 15:51:34;;;;;;;17.95;7.45;;;;;;;;;;6253023;28;19935;-62
2023/10/31 15:54:34;;;;;;;15.95;7.20;;;;;;;;;;6254029;28;20497;-61
2023/10/31 15:57:35;;;;;;;17.42;8.13;;;;;;;;;;6248421;28;20545;-61
2023/10/31 16:00:36;;;;;;;18.33;8.07;;;;;;;;;;6253730;28;20041;-60
2023/10/31 16:03:37;;;;;;;16.13;7.72;;;;;;;;;;6251030;28;20695;-60
2023/10/31 16:06:37;;;;;;;17.42;7.97;;;;;;;;;;6251480;28;20049;-60
2023/10/31 16:09:38;;;;;;;17.38;8.18;;;;;;;;;;6252158;28;20052;-61
2023/10/31 16:12:39;;;;;;;17.17;7.88;;;;;;;;;;6253380;28;20056;-60
2023/10/31 16:15:40;;;;;;;16.40;7.90;;;;;;;;;;6252096;28;20056;-60
2023/10/31 16:18:41;;;;;;;17.08;8.02;;;;;;;;;;6254080;28;20190;-60
2023/10/31 16:21:41;;;;;;;17.90;8.88;;;;;;;;;;6259792;28;20049;-61
2023/10/31 16:24:42;;;;;;;20.60;9.25;;;;;;;;;;6256912;28;20055;-61
2023/10/31 16:27:43;;;;;;;22.90;9.52;;;;;;;;;;6253077;28;20064;-61
2023/10/31 16:30:43;;;;;;;21.35;9.18;;;;;;;;;;6255514;28;20044;-62
2023/10/31 16:33:44;;;;;;;18.80;9.00;;;;;;;;;;6256315;28;20423;-61
2023/10/31 16:36:44;;;;;;;18.08;8.90;;;;;;;;;;6253141;28;20052;-61
2023/10/31 16:39:45;;;;;;;20.35;9.23;;;;;;;;;;6255790;28;20984;-58
2023/10/31 16:42:46;;;;;;;21.88;10.77;;;;;;;;;;6256359;28;20530;-61
2023/10/31 16:45:47;;;;;;;21.95;9.88;;;;;;;;;;6249953;28;20447;-60
2023/10/31 16:48:47;;;;;;;21.30;10.32;;;;;;;;;;6259487;28;20067;-61
2023/10/31 16:51:50;;;;;;;20.52;10.25;;;;;;;;;;6257791;28;20049;-60
2023/10/31 16:54:50;;;;;;;23.42;11.48;;;;;;;;;;6253264;28;20407;-60
2023/10/31 16:57:51;;;;;;;35.40;20.00;;;;;;;;;;6255752;28;20047;-60
2023/10/31 17:00:52;;;;;;;38.33;23.27;;;;;;;;;;6260871;28;20048;-61
2023/10/31 17:03:52;;;;;;;59.92;38.90;;;;;;;;;;6253761;28;20136;-60
2023/10/31 17:06:53;;;;;;;75.15;48.65;;;;;;;;;;6262535;28;20052;-58
2023/10/31 17:09:54;;;;;;;37.30;21.00;;;;;;;;;;6260072;28;20085;-60
2023/10/31 17:12:54;;;;;;;30.75;15.70;;;;;;;;;;6250101;28;20096;-60
2023/10/31 17:15:55;;;;;;;44.83;21.67;;;;;;;;;;6254960;28;20047;-60
2023/10/31 17:18:55;;;;;;;41.40;22.83;;;;;;;;;;6250710;28;20053;-60
2023/10/31 17:21:56;;;;;;;63.97;37.15;;;;;;;;;;6251628;28;20048;-60
2023/10/31 17:24:57;;;;;;;31.55;17.42;;;;;;;;;;6246819;28;20785;-60
2023/10/31 17:27:58;;;;;;;33.45;16.33;;;;;;;;;;6258235;28;20154;-61
2023/10/31 17:30:58;;;;;;;41.00;23.42;;;;;;;;;;6253685;28;20447;-59
2023/10/31 17:33:59;;;;;;;28.48;14.68;;;;;;;;;;6257625;28;20555;-59
2023/10/31 17:37:01;;;;;;;30.25;15.30;;;;;;;;;;6254236;28;20046;-59
2023/10/31 17:40:03;;;;;;;28.15;13.63;;;;;;;;;;6249333;28;20055;-59
2023/10/31 17:43:05;;;;;;;26.52;13.48;;;;;;;;;;6253987;28;20463;-60
2023/10/31 17:46:06;;;;;;;31.67;13.93;;;;;;;;;;6259282;28;20037;-59
2023/10/31 17:49:07;;;;;;;29.77;13.07;;;;;;;;;;6249429;28;20046;-59
2023/10/31 17:52:07;;;;;;;30.60;13.48;;;;;;;;;;6254559;28;20041;-57